Terminal Aerodrome Forecast
Issued by NWS Wilmington, OH

Current Version | Previous Version | Graphics & Text | Print | Product List | Glossary On
Versions: 1 2 3 4 5 6 7 8 9 10 11 12 13 14 15 16 17 18 19 20 21 22
000
FTUS41 KILN 210247 AAC
TAFILN
TAF AMD
KILN 210247Z 2103/2124 23013KT P6SM -SHRA VCTS SCT050CB BKN100
      TEMPO 2103/2105 VRB10G20KT 3SM TSRA OVC035CB
     FM210600 26011KT P6SM BKN025
     FM210800 31010KT P6SM BKN035
     FM211300 31010KT P6SM SCT050
     FM212300 35008KT P6SM OVC060=

USA.gov is the U.S. government's official web portal to all federal, state and local government web resources and services.